Time;durP1;ratioP1;P1;durP2;ratioP2;P2;SDS_P1;SDS_P2;PMS_P1;PMS_P2;Temp;Humidity;BMP_temperature;BMP_pressure;BME280_temperature;BME280_humidity;BME280_pressure;Samples;Min_cycle;Max_cycle;Signal;HPM_P1;HPM_P2
2022/01/13 00:00:54;;;;;;;8.85;5.17;;;;;;;-2.78;48.32;103153.56;1631271;86;21039;-51
2022/01/13 00:03:21;;;;;;;8.10;4.37;;;;;;;-2.81;48.10;103162.25;1657468;85;22075;-51
2022/01/13 00:05:47;;;;;;;8.75;4.90;;;;;;;-2.86;47.95;103163.20;1650206;84;21074;-51
2022/01/13 00:08:14;;;;;;;8.63;5.53;;;;;;;-2.86;48.25;103158.48;1663932;85;21172;-51
2022/01/13 00:10:42;;;;;;;9.08;5.83;;;;;;;-2.88;48.51;103167.68;1622552;87;21042;-52
2022/01/13 00:13:13;;;;;;;10.88;6.05;;;;;;;-2.90;48.77;103173.05;1646595;86;21089;-52
2022/01/13 00:15:50;;;;;;;8.18;5.15;;;;;;;-2.89;48.87;103172.30;1608378;88;21583;-52
2022/01/13 00:18:18;;;;;;;10.75;5.33;;;;;;;-2.87;48.87;103181.82;1612025;86;21578;-52
2022/01/13 00:23:42;;;;;;;9.10;5.05;;;;;;;-2.84;48.50;103173.48;1617593;86;21066;-52
2022/01/13 00:26:16;;;;;;;10.13;5.60;;;;;;;-2.85;48.65;103195.94;1660456;85;21050;-52
2022/01/13 00:28:37;;;;;;;9.63;5.40;;;;;;;-2.91;49.03;103177.67;1640953;85;21049;-52
2022/01/13 00:31:06;;;;;;;8.48;5.75;;;;;;;-2.91;49.20;103178.56;1627867;86;21066;-54
2022/01/13 00:33:32;;;;;;;9.05;5.15;;;;;;;-2.91;49.14;103180.22;1617274;87;21463;-52
2022/01/13 00:36:00;;;;;;;10.28;5.97;;;;;;;-2.94;49.24;103193.61;1625680;86;21554;-52
2022/01/13 00:38:28;;;;;;;8.33;6.08;;;;;;;-2.85;48.97;103190.84;1644410;86;21027;-52
2022/01/13 00:40:54;;;;;;;11.20;6.20;;;;;;;-2.78;49.10;103184.14;1628023;86;21082;-52
2022/01/13 00:43:21;;;;;;;10.63;6.35;;;;;;;-2.78;48.88;103182.87;1633429;86;21023;-52
2022/01/13 00:45:48;;;;;;;12.07;6.35;;;;;;;-2.75;48.85;103193.25;1633476;86;21070;-52
2022/01/13 00:48:15;;;;;;;9.33;5.95;;;;;;;-2.69;49.35;103183.48;1642550;86;21075;-52
2022/01/13 00:50:42;;;;;;;8.95;5.62;;;;;;;-2.74;49.23;103201.41;1636913;86;21018;-52
2022/01/13 00:53:08;;;;;;;8.83;5.40;;;;;;;-2.76;49.34;103195.33;1627541;86;21015;-52
2022/01/13 00:58:21;;;;;;;11.12;6.08;;;;;;;-2.77;49.08;103199.91;1629503;86;21094;-52
2022/01/13 01:00:47;;;;;;;9.03;6.20;;;;;;;-2.80;49.17;103197.13;1637285;86;20995;-52
2022/01/13 01:03:13;;;;;;;8.13;5.75;;;;;;;-2.79;49.63;103202.73;1636500;86;21075;-52
2022/01/13 01:05:41;;;;;;;8.68;6.20;;;;;;;-2.75;49.42;103212.36;1637679;86;21075;-52
2022/01/13 01:08:09;;;;;;;8.50;6.08;;;;;;;-2.76;49.60;103201.28;1641206;85;21134;-51
2022/01/13 01:10:38;;;;;;;8.88;5.85;;;;;;;-2.77;49.46;103202.45;1640477;86;21026;-52
2022/01/13 01:13:13;;;;;;;9.73;6.65;;;;;;;-2.78;49.46;103207.07;1637987;85;21047;-52
2022/01/13 01:15:44;;;;;;;10.40;6.25;;;;;;;-2.79;49.56;103209.10;1638688;86;21571;-50
2022/01/13 01:20:50;;;;;;;;;;;;;;;-2.76;49.18;103206.79;1583337;90;21541;-51
2022/01/13 01:23:15;;;;;;;9.40;5.72;;;;;;;-2.75;49.28;103202.17;1577617;91;20109;-50
2022/01/13 01:28:15;;;;;;;8.65;5.92;;;;;;;-2.72;49.29;103208.77;1527547;93;21087;-51
2022/01/13 01:30:41;;;;;;;9.05;6.42;;;;;;;-2.70;49.31;103198.30;1519943;94;21063;-52
2022/01/13 01:33:07;;;;;;;10.60;6.45;;;;;;;-2.69;49.16;103192.41;1520514;94;21142;-51
2022/01/13 01:35:34;;;;;;;10.80;6.92;;;;;;;-2.73;49.31;103201.89;1500401;94;21586;-51
2022/01/13 01:38:00;;;;;;;12.13;6.35;;;;;;;-2.76;49.45;103196.59;1520370;94;21732;-52
2022/01/13 01:40:27;;;;;;;10.60;6.62;;;;;;;-2.76;49.31;103208.92;1521141;94;21590;-51
2022/01/13 01:42:53;;;;;;;10.95;6.17;;;;;;;-2.75;49.42;103203.45;1521252;93;21559;-51
2022/01/13 01:45:20;;;;;;;13.00;6.83;;;;;;;-2.76;49.50;103199.14;1520126;94;21143;-51
2022/01/13 01:47:50;;;;;;;10.58;6.30;;;;;;;-2.76;49.20;103213.16;1509575;94;21582;-52
2022/01/13 01:50:21;;;;;;;11.90;6.40;;;;;;;-2.82;49.46;103216.52;1520638;94;21027;-51
2022/01/13 01:52:50;;;;;;;9.95;6.55;;;;;;;-2.82;49.37;103212.31;1521792;94;21087;-51
2022/01/13 01:55:17;;;;;;;11.33;7.00;;;;;;;-2.84;49.22;103211.70;1521400;94;21078;-51
2022/01/13 01:57:45;;;;;;;10.65;6.67;;;;;;;-2.85;49.33;103222.69;1522652;93;21109;-51
2022/01/13 02:00:15;;;;;;;13.03;7.10;;;;;;;-2.81;49.56;103223.40;1576485;89;21585;-51
2022/01/13 02:02:44;;;;;;;11.90;6.17;;;;;;;-2.82;49.67;103225.05;1568348;90;21118;-51
2022/01/13 02:05:10;;;;;;;9.98;6.33;;;;;;;-2.80;49.37;103220.05;1555606;90;21196;-51
2022/01/13 02:07:37;;;;;;;11.20;7.08;;;;;;;-2.79;49.21;103216.75;1560607;90;21119;-51
2022/01/13 02:10:06;;;;;;;9.85;5.92;;;;;;;-2.80;49.58;103235.34;1553667;91;21635;-51
2022/01/13 02:12:36;;;;;;;12.68;6.95;;;;;;;-2.80;49.19;103237.89;1564727;90;21748;-51
2022/01/13 02:17:34;;;;;;;9.05;5.97;;;;;;;-2.77;49.36;103233.03;1555347;90;21073;-51
2022/01/13 02:20:03;;;;;;;8.73;6.55;;;;;;;-2.82;49.13;103236.89;1559314;91;21100;-51
2022/01/13 02:22:30;;;;;;;10.30;6.70;;;;;;;-2.86;49.21;103232.36;1558623;90;21066;-51
2022/01/13 02:24:56;;;;;;;12.60;7.15;;;;;;;-2.82;49.19;103215.24;1611334;86;21011;-51
2022/01/13 02:27:22;;;;;;;11.30;7.12;;;;;;;-2.83;49.13;103209.67;1617892;87;21641;-51
2022/01/13 02:29:49;;;;;;;11.50;6.45;;;;;;;-2.84;49.04;103211.70;1635091;86;21578;-51
2022/01/13 02:32:16;;;;;;;11.35;6.28;;;;;;;-2.84;48.88;103207.88;1647933;86;21130;-51
2022/01/13 02:34:43;;;;;;;9.45;6.67;;;;;;;-2.91;49.00;103225.69;1632347;86;21075;-51
2022/01/13 02:37:09;;;;;;;11.83;6.72;;;;;;;-3.13;49.82;103208.77;1634131;86;21048;-51
2022/01/13 02:39:36;;;;;;;10.80;6.62;;;;;;;-3.16;50.24;103205.59;1638502;86;21023;-51
2022/01/13 02:42:11;;;;;;;14.20;7.03;;;;;;;-3.15;50.48;103219.23;1634862;86;21068;-51
2022/01/13 02:44:38;;;;;;;9.35;6.40;;;;;;;-3.13;50.10;103201.12;1622138;86;21084;-51
2022/01/13 02:47:20;;;;;;;10.05;6.80;;;;;;;-3.13;50.02;103210.89;1606470;86;21621;-51
2022/01/13 02:49:36;;;;;;;10.05;6.08;;;;;;;-3.14;49.94;103206.59;1645738;85;21083;-52
2022/01/13 02:52:04;;;;;;;14.03;7.35;;;;;;;-3.19;50.07;103203.23;1634839;86;21045;-51
2022/01/13 02:54:31;;;;;;;9.65;6.22;;;;;;;-3.22;50.06;103198.80;1693983;83;21071;-51
2022/01/13 02:56:58;;;;;;;9.95;6.37;;;;;;;-3.21;50.11;103200.96;1685581;83;21122;-52
2022/01/13 02:59:24;;;;;;;10.53;6.95;;;;;;;-3.18;50.26;103210.08;1683000;83;21097;-52
2022/01/13 03:01:50;;;;;;;11.70;7.10;;;;;;;-3.18;50.46;103212.63;1689916;83;21029;-51
2022/01/13 03:04:17;;;;;;;12.95;7.65;;;;;;;-3.20;50.23;103217.98;1702323;83;21061;-52
2022/01/13 03:06:44;;;;;;;13.38;7.42;;;;;;;-3.22;50.33;103216.99;1704583;83;21051;-53
2022/01/13 03:11:42;;;;;;;11.78;7.05;;;;;;;-3.33;50.29;103215.83;1659080;84;21022;-51
2022/01/13 03:14:10;;;;;;;12.18;6.55;;;;;;;-3.34;50.32;103225.91;1672061;84;21070;-52
2022/01/13 03:16:44;;;;;;;10.60;7.17;;;;;;;-3.39;50.16;103221.75;1657794;85;21626;-51
2022/01/13 03:19:11;;;;;;;10.70;6.58;;;;;;;-3.42;50.33;103239.33;1663745;84;21081;-51
2022/01/13 03:21:37;;;;;;;11.08;6.33;;;;;;;-3.43;50.48;103235.02;1648786;85;21085;-52
2022/01/13 03:24:08;;;;;;;11.88;6.97;;;;;;;-3.42;50.43;103234.64;1656583;85;21056;-51
2022/01/13 03:26:33;;;;;;;10.95;6.25;;;;;;;-3.42;50.30;103243.14;1653583;85;21055;-51
2022/01/13 03:31:39;;;;;;;11.38;7.37;;;;;;;-3.43;50.20;103249.03;1644913;85;21087;-51
2022/01/13 03:34:05;;;;;;;13.48;7.92;;;;;;;-3.44;50.40;103245.96;1674702;84;21033;-51
2022/01/13 03:36:33;;;;;;;13.00;7.28;;;;;;;-3.42;50.56;103250.78;1646557;85;21614;-51
2022/01/13 03:39:00;;;;;;;10.40;6.92;;;;;;;-3.41;50.36;103246.20;1663680;84;21138;-52
2022/01/13 03:41:27;;;;;;;9.68;6.25;;;;;;;-3.39;50.62;103261.20;1666792;84;21068;-52
2022/01/13 03:43:55;;;;;;;12.88;6.45;;;;;;;-3.38;50.54;103256.59;1679042;84;21054;-51
2022/01/13 03:46:21;;;;;;;10.45;6.75;;;;;;;-3.38;50.32;103248.95;1667999;84;21045;-52
2022/01/13 03:48:48;;;;;;;9.83;6.50;;;;;;;-3.36;50.40;103270.32;1654405;85;21081;-52
2022/01/13 03:51:14;;;;;;;13.43;6.20;;;;;;;-3.34;50.74;103259.86;1642936;85;21554;-51
2022/01/13 03:54:04;;;;;;;10.55;6.28;;;;;;;-3.32;50.48;103262.14;1656711;85;20983;-51
2022/01/13 03:57:22;;;;;;;10.68;6.75;;;;;;;-3.28;50.44;103257.28;1661910;84;21156;-51
2022/01/13 04:00:40;;;;;;;12.88;6.72;;;;;;;-3.31;50.27;103253.74;1658395;84;21031;-51
2022/01/13 04:03:01;;;;;;;12.45;6.75;;;;;;;-3.35;50.40;103261.03;1642943;85;21214;-51
2022/01/13 04:05:27;;;;;;;11.15;6.58;;;;;;;-3.35;50.57;103259.38;1656131;84;21019;-51
2022/01/13 04:07:56;;;;;;;14.33;7.30;;;;;;;-3.35;50.60;103261.92;1668425;84;21066;-51
2022/01/13 04:10:50;;;;;;;12.25;7.08;;;;;;;-3.34;50.69;103259.86;1679649;83;21070;-51
2022/01/13 04:13:43;;;;;;;13.03;6.58;;;;;;;-3.34;50.31;103270.05;1631856;86;21094;-51
2022/01/13 04:15:51;;;;;;;11.30;7.25;;;;;;;-3.35;50.37;103278.48;1627897;86;21155;-51
2022/01/13 04:18:18;;;;;;;9.58;6.08;;;;;;;-3.36;50.19;103279.64;1619107;88;21172;-52
2022/01/13 04:20:44;;;;;;;10.43;7.00;;;;;;;-3.38;50.00;103287.14;1623599;87;21076;-51
2022/01/13 04:23:12;;;;;;;10.70;7.03;;;;;;;-3.41;50.08;103286.93;1626144;87;21148;-51
2022/01/13 04:25:42;;;;;;;9.65;6.80;;;;;;;-3.43;50.36;103292.67;1624043;86;21044;-51
2022/01/13 04:28:08;;;;;;;11.28;7.10;;;;;;;-3.42;50.41;103286.41;1617581;88;21040;-51
2022/01/13 04:33:07;;;;;;;15.70;7.58;;;;;;;-3.45;50.40;103298.03;1634960;85;21090;-52
2022/01/13 04:35:33;;;;;;;14.33;7.47;;;;;;;-3.44;50.41;103289.23;1643023;86;21093;-51
2022/01/13 04:38:01;;;;;;;12.55;7.37;;;;;;;-3.43;50.45;103280.84;1633097;87;21073;-51
2022/01/13 04:40:27;;;;;;;13.10;7.78;;;;;;;-3.42;50.55;103291.50;1622905;87;22313;-51
2022/01/13 04:42:55;;;;;;;14.00;8.48;;;;;;;-3.40;50.42;103306.50;1620948;88;21563;-51
2022/01/13 04:45:23;;;;;;;13.53;7.45;;;;;;;-3.40;50.20;103301.41;1623272;88;21153;-51
2022/01/13 04:47:53;;;;;;;14.10;8.78;;;;;;;-3.41;50.23;103298.39;1626270;87;21080;-51
2022/01/13 04:50:23;;;;;;;11.97;7.55;;;;;;;-3.42;50.21;103308.05;1632577;86;21049;-51
2022/01/13 04:52:50;;;;;;;12.05;7.25;;;;;;;-3.42;50.10;103314.41;1628317;87;21026;-51
2022/01/13 04:55:22;;;;;;;12.78;7.78;;;;;;;-3.42;49.96;103308.46;1633971;86;21088;-51
2022/01/13 04:57:44;;;;;;;11.93;7.42;;;;;;;-3.44;50.16;103310.87;1632193;86;21603;-52
2022/01/13 05:00:12;;;;;;;10.25;7.28;;;;;;;-3.42;50.57;103311.00;1619813;87;21609;-51
2022/01/13 05:02:39;;;;;;;12.47;7.65;;;;;;;-3.41;50.49;103307.30;1630164;86;21586;-51
2022/01/13 05:05:07;;;;;;;11.40;8.10;;;;;;;-3.40;50.38;103317.96;1617811;88;21549;-51
2022/01/13 05:07:34;;;;;;;9.75;7.33;;;;;;;-3.37;50.48;103314.39;1669137;83;21538;-51
2022/01/13 05:10:01;;;;;;;12.70;7.45;;;;;;;-3.33;50.29;103306.20;1712930;83;21077;-51
2022/01/13 05:12:34;;;;;;;10.85;6.90;;;;;;;-3.31;50.19;103313.56;1682613;83;21063;-51
2022/01/13 05:15:05;;;;;;;13.88;7.80;;;;;;;-3.33;50.16;103321.48;1684227;83;21018;-51
2022/01/13 05:22:43;;;;;;;18.65;7.97;;;;;;;-3.33;50.43;103321.48;1676067;84;20094;-51
2022/01/13 05:25:10;;;;;;;13.25;7.47;;;;;;;-3.32;50.25;103316.01;1660919;84;21037;-51
2022/01/13 05:27:36;;;;;;;11.10;7.85;;;;;;;-3.34;50.16;103317.14;1668139;83;21546;-51
2022/01/13 05:30:04;;;;;;;11.30;6.90;;;;;;;-3.33;50.31;103309.13;1655014;85;21032;-52
2022/01/13 05:32:31;;;;;;;13.72;8.63;;;;;;;-3.31;50.51;103309.75;1669617;84;21085;-51
2022/01/13 05:34:57;;;;;;;12.85;8.03;;;;;;;-3.27;50.55;103315.05;1667919;85;21080;-52
2022/01/13 05:37:24;;;;;;;13.50;7.35;;;;;;;-3.26;50.48;103318.11;1664896;85;21132;-51
2022/01/13 05:39:50;;;;;;;16.80;8.88;;;;;;;-3.25;50.42;103317.33;1671361;84;21023;-51
2022/01/13 05:42:16;;;;;;;13.88;8.50;;;;;;;-3.26;50.34;103316.84;1672340;84;21075;-51
2022/01/13 05:44:43;;;;;;;12.45;7.45;;;;;;;-3.23;50.47;103332.33;1659660;84;21071;-51
2022/01/13 05:47:11;;;;;;;12.18;7.80;;;;;;;-3.24;50.19;103317.84;1660571;85;21100;-51
2022/01/13 05:49:40;;;;;;;12.53;8.05;;;;;;;-3.26;50.17;103320.66;1664749;84;21123;-51
2022/01/13 05:52:08;;;;;;;12.85;8.65;;;;;;;-3.28;50.22;103314.56;1662411;85;21091;-50
2022/01/13 05:54:34;;;;;;;14.35;8.80;;;;;;;-3.28;50.36;103331.11;1668495;85;22500;-51
2022/01/13 05:57:01;;;;;;;14.73;8.10;;;;;;;-3.27;50.55;103329.05;1662322;84;21555;-52
2022/01/13 05:59:28;;;;;;;14.33;9.55;;;;;;;-3.25;50.74;103331.33;1681759;83;21067;-51
2022/01/13 06:01:55;;;;;;;14.25;8.95;;;;;;;-3.26;50.72;103333.39;1649262;86;21048;-51
2022/01/13 06:04:21;;;;;;;14.55;8.63;;;;;;;-3.04;50.43;103330.38;1656753;85;20998;-51
2022/01/13 06:06:48;;;;;;;14.33;9.23;;;;;;;-2.97;50.33;103333.52;1655370;85;21080;-52
2022/01/13 06:09:14;;;;;;;17.23;8.90;;;;;;;-2.92;50.34;103335.98;1659626;85;21085;-51
2022/01/13 06:11:45;;;;;;;15.90;10.05;;;;;;;-2.88;50.34;103335.81;1657208;85;21123;-51
2022/01/13 06:14:10;;;;;;;14.58;9.05;;;;;;;-2.83;50.44;103340.88;1672303;84;21095;-51
2022/01/13 06:16:36;;;;;;;15.70;9.15;;;;;;;-2.75;50.12;103353.41;1684233;84;21094;-51
2022/01/13 06:19:03;;;;;;;15.70;8.75;;;;;;;-2.73;49.83;103354.78;1662371;83;21039;-51
2022/01/13 06:21:29;;;;;;;14.95;9.93;;;;;;;-2.71;49.69;103357.05;1677158;83;21078;-51
2022/01/13 06:23:56;;;;;;;14.03;9.58;;;;;;;-2.65;49.76;103365.14;1681640;83;21529;-51
2022/01/13 06:26:23;;;;;;;17.95;9.88;;;;;;;-2.53;49.82;103352.00;1682051;83;21284;-51
2022/01/13 06:28:50;;;;;;;15.10;10.05;;;;;;;-2.39;49.72;103346.23;1682695;83;21120;-51
2022/01/13 06:31:16;;;;;;;17.50;9.83;;;;;;;-2.25;49.45;103355.77;1682071;83;21018;-51
2022/01/13 06:33:42;;;;;;;15.80;10.48;;;;;;;-2.11;49.28;103362.73;1680669;83;21013;-51
2022/01/13 06:36:09;;;;;;;16.67;10.48;;;;;;;-1.90;49.00;103359.52;1678876;83;21055;-52
2022/01/13 06:38:36;;;;;;;16.93;10.75;;;;;;;-1.96;48.98;103356.13;1693643;83;21156;-51
2022/01/13 06:41:03;;;;;;;15.32;10.63;;;;;;;-1.97;49.04;103364.58;1678345;83;21136;-51
2022/01/13 06:43:29;;;;;;;15.35;9.00;;;;;;;-1.96;49.01;103371.44;1699699;83;21019;-52
2022/01/13 06:45:56;;;;;;;15.43;10.45;;;;;;;-1.93;48.87;103370.39;1689235;83;21076;-51
2022/01/13 06:48:22;;;;;;;13.55;10.15;;;;;;;-1.97;48.83;103363.30;1709825;83;20999;-51
2022/01/13 06:50:49;;;;;;;12.23;8.55;;;;;;;-1.99;48.94;103367.41;1686376;83;21006;-51
2022/01/13 06:53:16;;;;;;;18.17;10.53;;;;;;;-2.02;49.22;103360.80;1680878;83;21045;-51
2022/01/13 06:55:42;;;;;;;13.28;9.50;;;;;;;-2.05;49.32;103362.27;1679312;83;21009;-51
2022/01/13 06:58:09;;;;;;;16.48;9.78;;;;;;;-2.09;49.39;103361.17;1682722;83;21104;-51
2022/01/13 07:00:37;;;;;;;15.58;9.55;;;;;;;-2.11;49.67;103367.83;1682458;83;21500;-51
2022/01/13 07:03:04;;;;;;;14.90;9.43;;;;;;;-2.10;49.70;103363.21;1689691;83;22654;-51
2022/01/13 07:05:32;;;;;;;14.15;9.48;;;;;;;-2.11;49.85;103355.08;1676811;83;21094;-51
2022/01/13 07:07:58;;;;;;;14.28;9.05;;;;;;;-2.09;49.63;103361.17;1679156;83;21001;-51
2022/01/13 07:10:25;;;;;;;12.47;9.33;;;;;;;-2.08;49.68;103351.86;1682559;83;21106;-51
2022/01/13 07:12:51;;;;;;;14.07;9.48;;;;;;;-2.07;49.87;103354.52;1694038;83;21041;-51
2022/01/13 07:15:18;;;;;;;15.70;9.65;;;;;;;-2.05;49.94;103339.30;1680094;83;21038;-51
2022/01/13 07:17:46;;;;;;;13.43;9.15;;;;;;;-2.03;50.07;103337.75;1669977;83;21128;-52
2022/01/13 07:20:12;;;;;;;14.78;9.85;;;;;;;-2.02;50.01;103340.39;1685960;83;22486;-51
2022/01/13 07:22:39;;;;;;;15.90;11.08;;;;;;;-2.03;50.05;103346.30;1688595;83;21517;-51
2022/01/13 07:25:08;;;;;;;14.73;10.45;;;;;;;-2.05;50.08;103341.86;1678105;83;21078;-51
2022/01/13 07:27:35;;;;;;;14.85;9.85;;;;;;;-2.06;50.26;103321.83;1679115;83;21034;-51
2022/01/13 07:30:02;;;;;;;16.32;9.55;;;;;;;-2.02;50.18;103332.74;1661290;83;21553;-51
2022/01/13 07:32:28;;;;;;;13.30;9.83;;;;;;;-1.98;50.10;103331.31;1685795;83;21055;-51
2022/01/13 07:34:55;;;;;;;14.38;9.83;;;;;;;-1.97;50.10;103313.55;1701865;83;21014;-51
2022/01/13 07:37:24;;;;;;;13.32;9.40;;;;;;;-1.98;49.96;103308.35;1705760;83;21085;-51
2022/01/13 07:39:50;;;;;;;13.83;9.10;;;;;;;-1.98;49.76;103316.87;1677564;83;21542;-51
2022/01/13 07:42:17;;;;;;;13.78;9.15;;;;;;;-1.95;49.75;103317.48;1694156;83;21088;-51
2022/01/13 07:44:44;;;;;;;12.90;9.70;;;;;;;-1.93;49.90;103302.78;1691835;83;21027;-52
2022/01/13 07:47:10;;;;;;;13.10;8.85;;;;;;;-1.86;49.82;103306.64;1697786;83;21132;-51
2022/01/13 07:49:37;;;;;;;13.75;9.10;;;;;;;-1.79;49.82;103304.98;1686210;83;21068;-51
2022/01/13 07:52:04;;;;;;;12.93;9.20;;;;;;;-1.73;49.63;103304.13;1682830;83;21025;-51
2022/01/13 07:54:31;;;;;;;16.93;9.25;;;;;;;-1.70;49.39;103307.80;1683825;83;21030;-53
2022/01/13 07:56:59;;;;;;;14.43;10.20;;;;;;;-1.68;49.57;103304.95;1694668;83;21026;-51
2022/01/13 07:59:28;;;;;;;16.10;10.50;;;;;;;-1.63;49.59;103303.11;1685837;83;21502;-51
2022/01/13 08:01:56;;;;;;;13.10;9.00;;;;;;;-1.58;49.64;103311.94;1681882;83;21079;-51
2022/01/13 08:04:23;;;;;;;17.37;9.48;;;;;;;-1.53;49.63;103306.77;1684290;84;21004;-51
2022/01/13 08:06:50;;;;;;;15.38;9.90;;;;;;;-1.52;49.49;103319.62;1710957;83;21111;-52
2022/01/13 08:09:18;;;;;;;15.10;10.25;;;;;;;-1.52;49.29;103316.18;1704006;83;21061;-51
2022/01/13 08:11:45;;;;;;;14.28;10.55;;;;;;;-1.52;49.36;103318.73;1708459;83;21119;-51
2022/01/13 08:14:12;;;;;;;14.05;10.20;;;;;;;-1.48;49.19;103329.68;1709408;83;21103;-51
2022/01/13 08:16:41;;;;;;;13.85;9.55;;;;;;;-1.42;48.82;103325.84;1711147;83;21034;-51
2022/01/13 08:21:52;;;;;;;13.13;9.93;;;;;;;-1.34;48.40;103318.72;1711305;83;21061;-51
2022/01/13 08:24:18;;;;;;;16.25;10.53;;;;;;;-1.27;48.54;103320.88;1710180;83;21107;-52
2022/01/13 08:26:44;;;;;;;21.80;13.08;;;;;;;-1.24;48.42;103323.66;1706162;83;21075;-51
2022/01/13 08:29:11;;;;;;;15.65;10.00;;;;;;;-1.17;48.33;103324.53;1683802;84;21079;-54
2022/01/13 08:31:37;;;;;;;14.65;9.90;;;;;;;-1.11;48.16;103322.00;1691406;84;21329;-51
2022/01/13 08:34:04;;;;;;;12.33;9.48;;;;;;;-1.09;48.08;103322.98;1705767;84;21520;-51
2022/01/13 08:36:31;;;;;;;16.27;10.78;;;;;;;-1.06;48.07;103312.09;1700372;84;21047;-51
2022/01/13 08:38:58;;;;;;;16.97;10.30;;;;;;;-1.01;47.76;103315.84;1698559;84;21060;-51
2022/01/13 08:41:24;;;;;;;15.28;10.58;;;;;;;-0.82;47.40;103310.73;1701884;84;21043;-53
2022/01/13 08:43:53;;;;;;;16.40;10.88;;;;;;;-0.75;47.30;103314.95;1702624;84;21067;-51
2022/01/13 08:46:19;;;;;;;16.02;9.93;;;;;;;-0.71;47.40;103310.15;1702767;84;21100;-51
2022/01/13 08:48:46;;;;;;;12.37;9.23;;;;;;;-0.64;47.11;103302.09;1701441;84;21034;-51
2022/01/13 08:51:17;;;;;;;14.93;9.43;;;;;;;-0.57;46.71;103286.34;1699932;84;21077;-51
2022/01/13 08:53:41;;;;;;;16.05;10.55;;;;;;;-0.51;46.39;103289.28;1699736;84;21507;-51
2022/01/13 08:56:07;;;;;;;16.73;11.08;;;;;;;-0.44;46.14;103278.66;1699985;84;21016;-51
2022/01/13 08:58:34;;;;;;;17.65;10.43;;;;;;;-0.36;46.24;103272.34;1700023;84;20977;-51
2022/01/13 09:01:01;;;;;;;14.85;10.08;;;;;;;-0.22;46.15;103277.91;1701206;83;21070;-51
2022/01/13 09:03:27;;;;;;;14.45;9.75;;;;;;;-0.06;45.95;103266.55;1707446;83;21042;-52
2022/01/13 09:05:55;;;;;;;15.48;9.45;;;;;;;0.07;45.48;103263.44;1691004;83;21098;-51
2022/01/13 09:08:21;;;;;;;12.90;9.38;;;;;;;0.15;45.02;103262.22;1690550;83;21102;-51
2022/01/13 09:10:48;;;;;;;13.68;8.90;;;;;;;0.22;44.71;103263.09;1683225;83;21121;-51
2022/01/13 09:13:15;;;;;;;14.58;9.15;;;;;;;0.30;44.19;103264.43;1699538;83;21117;-51
2022/01/13 09:15:49;;;;;;;14.35;9.00;;;;;;;0.28;43.88;103257.05;1696600;83;21537;-51
2022/01/13 09:18:19;;;;;;;12.47;8.73;;;;;;;0.26;43.98;103251.85;1679760;83;21082;-51
2022/01/13 09:20:42;;;;;;;14.07;8.53;;;;;;;0.26;44.07;103248.02;1677862;83;21297;-51
2022/01/13 09:23:09;;;;;;;12.35;8.70;;;;;;;0.23;44.01;103246.95;1688155;83;21746;-51
2022/01/13 09:25:35;;;;;;;11.35;8.13;;;;;;;0.24;44.05;103246.14;1688674;84;21564;-51
2022/01/13 09:28:06;;;;;;;9.70;7.25;;;;;;;0.23;44.12;103241.84;1687158;84;21610;-51
2022/01/13 09:30:34;;;;;;;12.37;8.53;;;;;;;0.34;43.56;103227.58;1693808;83;21081;-52
2022/01/13 09:33:00;;;;;;;12.03;7.92;;;;;;;0.42;43.49;103226.73;1697416;84;21122;-51
2022/01/13 09:35:27;;;;;;;12.25;8.38;;;;;;;0.46;43.51;103210.75;1695241;84;21022;-51
2022/01/13 09:37:54;;;;;;;13.88;9.00;;;;;;;0.50;43.43;103203.33;1695099;84;21086;-51
2022/01/13 09:40:21;;;;;;;14.73;9.43;;;;;;;0.54;42.92;103197.98;1699352;84;21034;-51
2022/01/13 09:42:47;;;;;;;11.28;7.87;;;;;;;0.54;42.65;103191.58;1689495;83;20986;-51
2022/01/13 09:45:16;;;;;;;12.82;7.90;;;;;;;0.54;42.68;103180.05;1693689;84;21087;-51
2022/01/13 09:47:43;;;;;;;13.13;8.05;;;;;;;0.59;42.26;103185.05;1678063;84;21031;-51
2022/01/13 09:50:13;;;;;;;11.18;7.35;;;;;;;0.63;41.90;103185.71;1680315;84;20986;-51
2022/01/13 09:52:40;;;;;;;10.63;7.42;;;;;;;0.68;40.88;103174.06;1696310;83;21027;-51
2022/01/13 09:55:08;;;;;;;9.40;6.85;;;;;;;0.70;40.62;103171.19;1698307;84;21042;-51
2022/01/13 09:57:35;;;;;;;11.63;7.53;;;;;;;0.77;40.28;103159.17;1683162;83;21093;-51
2022/01/13 10:00:01;;;;;;;11.90;7.47;;;;;;;0.80;40.22;103158.09;1687387;83;20981;-51
2022/01/13 10:02:29;;;;;;;11.00;8.18;;;;;;;0.89;40.11;103158.58;1688247;84;21067;-51
2022/01/13 10:04:56;;;;;;;12.40;7.95;;;;;;;0.98;40.18;103157.81;1687696;83;21088;-52
2022/01/13 10:07:35;;;;;;;12.68;8.73;;;;;;;1.07;40.03;103160.86;1680445;83;21021;-51
2022/01/13 10:10:06;;;;;;;10.75;7.90;;;;;;;1.08;40.03;103165.20;1681094;83;21071;-51
2022/01/13 10:12:37;;;;;;;13.98;8.90;;;;;;;1.11;40.59;103171.80;1689602;84;21085;-51
2022/01/13 10:17:51;;;;;;;15.88;9.45;;;;;;;1.13;41.10;103157.38;1627061;86;21044;-51
2022/01/13 10:20:20;;;;;;;15.13;9.30;;;;;;;1.07;41.16;103159.58;1622680;86;21464;-51
2022/01/13 10:22:47;;;;;;;13.10;9.23;;;;;;;1.10;41.58;103149.51;1630149;85;21743;-51
2022/01/13 10:25:35;;;;;;;14.65;10.35;;;;;;;1.19;41.79;103146.56;1629135;86;21561;-51
2022/01/13 10:28:18;;;;;;;16.67;10.58;;;;;;;1.26;41.76;103144.41;1614341;87;21041;-51
2022/01/13 10:30:50;;;;;;;14.65;10.35;;;;;;;1.31;41.70;103144.66;1607249;88;21128;-51
2022/01/13 10:33:21;;;;;;;18.10;10.82;;;;;;;1.33;41.70;103142.66;1540644;92;21131;-51
2022/01/13 10:35:50;;;;;;;17.05;11.78;;;;;;;1.41;41.65;103140.10;1522611;92;21087;-51
2022/01/13 10:38:17;;;;;;;16.10;11.15;;;;;;;1.47;41.71;103150.69;1531570;92;21611;-51
2022/01/13 10:40:47;;;;;;;18.50;12.90;;;;;;;1.48;42.11;103135.75;1511075;93;21559;-51
2022/01/13 10:43:16;;;;;;;14.63;10.95;;;;;;;1.49;42.36;103132.80;1535679;92;21220;-51
2022/01/13 10:45:53;;;;;;;17.95;12.43;;;;;;;1.58;42.32;103129.05;1545944;91;21645;-52
2022/01/13 10:48:28;;;;;;;15.30;11.57;;;;;;;1.63;42.25;103121.56;1518613;93;21085;-51
2022/01/13 10:51:02;;;;;;;17.17;11.83;;;;;;;1.62;42.25;103115.58;1557313;91;21606;-51
2022/01/13 10:53:37;;;;;;;17.42;11.90;;;;;;;1.62;41.85;103112.12;1491985;94;21118;-51
2022/01/13 10:56:09;;;;;;;16.35;11.70;;;;;;;1.60;42.06;103103.06;1481055;95;21140;-51
2022/01/13 10:58:39;;;;;;;18.27;13.22;;;;;;;1.61;42.18;103100.08;1445588;98;21269;-51
2022/01/13 11:01:06;;;;;;;17.32;12.28;;;;;;;1.65;42.11;103097.75;1435418;99;21161;-51
2022/01/13 11:03:39;;;;;;;17.27;13.28;;;;;;;1.69;42.10;103103.91;1434768;98;21145;-51
2022/01/13 11:06:05;;;;;;;17.55;12.37;;;;;;;1.72;42.34;103103.20;1435480;98;21083;-51
2022/01/13 11:08:43;;;;;;;18.45;12.88;;;;;;;1.77;42.50;103103.05;1432071;98;21957;-51
2022/01/13 11:11:28;;;;;;;18.23;14.35;;;;;;;1.82;42.67;103096.44;1435109;99;21118;-51
2022/01/13 11:14:08;;;;;;;22.07;14.07;;;;;;;1.85;42.75;103088.52;1441694;97;21217;-51
2022/01/13 11:16:30;;;;;;;20.97;14.83;;;;;;;1.94;42.76;103089.39;1448274;98;21160;-51
2022/01/13 11:18:58;;;;;;;19.45;13.43;;;;;;;2.02;42.75;103092.79;1457583;98;21141;-51
2022/01/13 11:21:26;;;;;;;20.23;13.98;;;;;;;2.06;42.65;103097.70;1456009;98;21162;-51
2022/01/13 11:23:53;;;;;;;24.32;15.93;;;;;;;2.04;42.89;103092.89;1455645;98;21113;-51
2022/01/13 11:26:26;;;;;;;27.35;17.52;;;;;;;2.12;42.87;103087.30;1449895;98;21133;-51
2022/01/13 11:28:51;;;;;;;40.95;25.17;;;;;;;2.21;43.01;103084.30;1451218;98;21112;-52
2022/01/13 11:31:19;;;;;;;29.95;20.12;;;;;;;2.32;42.89;103075.45;1440063;99;21201;-51
2022/01/13 11:33:45;;;;;;;23.10;16.62;;;;;;;2.37;42.70;103071.42;1428456;100;21644;-51
2022/01/13 11:36:12;;;;;;;20.97;15.15;;;;;;;2.43;42.37;103060.16;1475178;96;21180;-51
2022/01/13 11:38:40;;;;;;;20.68;15.50;;;;;;;2.44;42.43;103059.33;1455630;96;21618;-51
2022/01/13 11:41:08;;;;;;;23.67;16.00;;;;;;;2.45;42.65;103057.25;1473454;96;21141;-51
2022/01/13 11:43:41;;;;;;;25.35;17.48;;;;;;;2.44;42.69;103056.37;1501892;93;21105;-51
2022/01/13 11:46:19;;;;;;;24.90;18.12;;;;;;;2.47;42.77;103048.78;1511583;93;21088;-52
2022/01/13 11:49:17;;;;;;;25.00;18.00;;;;;;;2.55;42.53;103044.42;1522507;94;21078;-51
2022/01/13 11:51:56;;;;;;;26.07;18.05;;;;;;;2.52;42.63;103032.70;1474147;95;21141;-52
2022/01/13 11:54:31;;;;;;;24.77;17.37;;;;;;;2.48;43.05;103011.12;1493456;95;21640;-51
2022/01/13 11:57:23;;;;;;;25.27;16.93;;;;;;;2.49;43.28;103001.34;1527968;91;21114;-51